Time;durP1;ratioP1;P1;durP2;ratioP2;P2;SDS_P1;SDS_P2;PMS_P1;PMS_P2;Temp;Humidity;BMP_temperature;BMP_pressure;BME280_temperature;BME280_humidity;BME280_pressure;Samples;Min_cycle;Max_cycle;Signal;HPM_P1;HPM_P2
2023/03/17 00:01:50;;;;;;;;;;;;;;;16.61;66.21;101372.09;7405224;19;1823;-57
2023/03/17 00:04:18;;;;;;;;;;;;;;;16.59;66.36;101374.03;7405434;19;1749;-57
2023/03/17 00:06:47;;;;;;;;;;;;;;;16.55;66.36;101369.81;7404238;19;1890;-57
2023/03/17 00:09:16;;;;;;;;;;;;;;;16.59;66.39;101383.84;7405614;19;1657;-57
2023/03/17 00:11:44;;;;;;;;;;;;;;;16.53;66.04;101363.75;7403668;19;2146;-57
2023/03/17 00:14:15;;;;;;;;;;;;;;;16.55;66.39;101368.97;7401464;19;1795;-57
2023/03/17 00:16:44;;;;;;;;;;;;;;;16.54;66.52;101369.97;7406075;19;1023;-57
2023/03/17 00:19:16;;;;;;;;;;;;;;;16.51;66.18;101363.00;7404999;19;2158;-57
2023/03/17 00:21:44;;;;;;;;;;;;;;;16.53;66.38;101369.06;7403633;19;2199;-57
2023/03/17 00:24:14;;;;;;;;;;;;;;;16.53;66.25;101361.06;7402215;19;2052;-58
2023/03/17 00:26:42;;;;;;;;;;;;;;;16.53;66.10;101368.22;7403666;19;2042;-57
2023/03/17 00:29:12;;;;;;;;;;;;;;;16.53;66.01;101385.09;7402668;19;1114;-57
2023/03/17 00:31:44;;;;;;;;;;;;;;;16.51;66.49;101368.31;7400676;19;2213;-57
2023/03/17 00:34:13;;;;;;;;;;;;;;;16.49;66.04;101363.13;7403662;19;1825;-57
2023/03/17 00:36:42;;;;;;;;;;;;;;;16.52;66.28;101383.41;7403528;19;2070;-57
2023/03/17 00:39:15;;;;;;;;;;;;;;;16.49;66.38;101378.25;7404080;19;1779;-58
2023/03/17 00:41:43;;;;;;;;;;;;;;;16.47;66.32;101377.50;7405029;19;1802;-58
2023/03/17 00:44:11;;;;;;;;;;;;;;;16.47;66.46;101374.84;7405353;19;1838;-57
2023/03/17 00:46:43;;;;;;;;;;;;;;;16.45;66.32;101377.63;7403849;19;2169;-57
2023/03/17 00:49:15;;;;;;;;;;;;;;;16.44;65.99;101375.91;7403477;19;2183;-57
2023/03/17 00:51:44;;;;;;;;;;;;;;;16.43;65.96;101386.69;7401745;19;2301;-58
2023/03/17 00:54:13;;;;;;;;;;;;;;;16.42;66.23;101385.00;7403665;19;1837;-57
2023/03/17 00:56:42;;;;;;;;;;;;;;;16.43;65.91;101376.00;7403241;19;2030;-57
2023/03/17 00:59:17;;;;;;;;;;;;;;;16.40;66.01;101384.25;7402015;19;1837;-57
2023/03/17 01:01:48;;;;;;;;;;;;;;;16.39;66.15;101390.53;7402929;19;1718;-57
2023/03/17 01:04:17;;;;;;;;;;;;;;;16.43;65.53;101405.38;7401028;19;1753;-57
2023/03/17 01:06:45;;;;;;;;;;;;;;;16.39;65.66;101393.19;7402431;19;2087;-57
2023/03/17 01:09:15;;;;;;;;;;;;;;;16.40;65.53;101409.13;7403428;19;1658;-57
2023/03/17 01:11:44;;;;;;;;;;;;;;;16.38;65.90;101396.84;7399920;19;1847;-58
2023/03/17 01:14:12;;;;;;;;;;;;;;;16.38;65.59;101387.00;7401031;19;2011;-57
2023/03/17 01:16:41;;;;;;;;;;;;;;;16.34;66.15;101385.50;7402461;19;1018;-57
2023/03/17 01:19:12;;;;;;;;;;;;;;;16.34;65.71;101384.66;7402404;19;2186;-57
2023/03/17 01:21:41;;;;;;;;;;;;;;;16.34;66.19;101401.50;7403499;19;2140;-57
2023/03/17 01:24:09;;;;;;;;;;;;;;;16.34;66.19;101400.66;7402238;19;2087;-57
2023/03/17 01:26:39;;;;;;;;;;;;;;;16.33;66.08;101410.47;7401982;19;2041;-57
2023/03/17 01:29:07;;;;;;;;;;;;;;;16.31;66.16;101412.38;7401473;19;2001;-58
2023/03/17 01:31:36;;;;;;;;;;;;;;;16.31;66.13;101412.38;7399090;19;1983;-57
2023/03/17 01:34:04;;;;;;;;;;;;;;;16.32;65.86;101418.59;7400353;19;1883;-57
2023/03/17 01:36:36;;;;;;;;;;;;;;;16.30;66.01;101406.19;7402517;19;1792;-57
2023/03/17 01:39:06;;;;;;;;;;;;;;;16.30;65.98;101416.88;7402496;19;1613;-57
2023/03/17 01:41:35;;;;;;;;;;;;;;;16.30;66.16;101416.88;7402762;19;2355;-57
2023/03/17 01:44:03;;;;;;;;;;;;;;;16.29;65.88;101419.63;7402294;19;2124;-57
2023/03/17 01:46:32;;;;;;;;;;;;;;;16.27;65.56;101417.09;7401936;19;1897;-57
2023/03/17 01:49:14;;;;;;;;;;;;;;;16.30;65.96;101410.69;7402600;19;2040;-57
2023/03/17 01:51:48;;;;;;;;;;;;;;;16.28;65.54;101416.13;7400232;19;2032;-58
2023/03/17 01:54:18;;;;;;;;;;;;;;;16.26;65.50;101446.53;7401619;19;2053;-58
2023/03/17 01:56:50;;;;;;;;;;;;;;;16.26;65.45;101425.19;7401483;19;2002;-57
2023/03/17 01:59:21;;;;;;;;;;;;;;;16.25;65.63;101444.81;7401197;19;1991;-57
2023/03/17 02:01:51;;;;;;;;;;;;;;;16.26;65.32;101433.19;7400292;19;2098;-57
2023/03/17 02:04:20;;;;;;;;;;;;;;;16.25;65.53;101451.03;7400231;19;1779;-57
2023/03/17 02:06:52;;;;;;;;;;;;;;;16.22;65.73;101448.56;7400536;19;1851;-57
2023/03/17 02:09:20;;;;;;;;;;;;;;;16.25;65.79;101442.16;7402622;19;1054;-58
2023/03/17 02:11:49;;;;;;;;;;;;;;;16.21;65.82;101438.81;7398512;19;2167;-57
2023/03/17 02:14:19;;;;;;;;;;;;;;;16.20;65.05;101455.81;7399878;19;1797;-57
2023/03/17 02:16:48;;;;;;;;;;;;;;;16.19;65.02;101437.22;7400410;19;1106;-57
2023/03/17 02:19:16;;;;;;;;;;;;;;;16.19;64.96;101451.41;7400772;19;2263;-57
2023/03/17 02:21:47;;;;;;;;;;;;;;;16.18;65.41;101449.72;7399894;19;2194;-58
2023/03/17 02:24:22;;;;;;;;;;;;;;;16.18;65.55;101447.03;7401024;19;2064;-57
2023/03/17 02:26:51;;;;;;;;;;;;;;;16.19;65.78;101467.41;7400398;19;1788;-58
2023/03/17 02:29:20;;;;;;;;;;;;;;;16.19;65.52;101455.91;7400563;19;2093;-58
2023/03/17 02:31:49;;;;;;;;;;;;;;;16.18;65.22;101465.72;7398532;19;1858;-57
2023/03/17 02:34:17;;;;;;;;;;;;;;;16.16;65.25;101472.13;7400847;19;2043;-57
2023/03/17 02:36:48;;;;;;;;;;;;;;;16.16;65.31;101456.97;7398635;19;1777;-57
2023/03/17 02:39:16;;;;;;;;;;;;;;;16.14;65.37;101461.53;7399416;19;1833;-57
2023/03/17 02:41:45;;;;;;;;;;;;;;;16.13;65.57;101491.84;7401170;19;1117;-57
2023/03/17 02:44:13;;;;;;;;;;;;;;;16.15;65.79;101486.41;7400023;19;2163;-57
2023/03/17 02:46:41;;;;;;;;;;;;;;;16.13;65.05;101473.16;7399821;19;2615;-57
2023/03/17 02:49:10;;;;;;;;;;;;;;;16.18;65.94;101492.41;7399492;19;2144;-57
2023/03/17 02:51:39;;;;;;;;;;;;;;;16.65;64.73;101495.56;7399301;19;1954;-57
2023/03/17 02:54:10;;;;;;;;;;;;;;;17.37;63.21;101480.00;7400049;19;2078;-57
2023/03/17 02:56:38;;;;;;;;;;;;;;;18.32;60.26;101476.81;7399683;19;2141;-58
2023/03/17 02:59:07;;;;;;;;;;;;;;;18.83;59.03;101479.25;7399263;19;2052;-57
2023/03/17 03:01:35;;;;;;;;;;;;;;;19.07;58.44;101482.72;7398495;19;2134;-57
2023/03/17 03:04:04;;;;;;;;;;;;;;;19.31;57.83;101481.78;7398004;19;1849;-58
2023/03/17 03:06:33;;;;;;;;;;;;;;;19.25;58.27;101495.69;7399361;19;2110;-57
2023/03/17 03:09:02;;;;;;;;;;;;;;;19.03;59.06;101489.31;7400596;19;1102;-57
2023/03/17 03:11:33;;;;;;;;;;;;;;;18.99;59.16;101490.50;7396160;19;1855;-58
2023/03/17 03:14:02;;;;;;;;;;;;;;;19.07;58.85;101506.00;7398195;19;1638;-57
2023/03/17 03:16:30;;;;;;;;;;;;;;;19.03;59.17;101494.66;7399584;19;1861;-58
2023/03/17 03:18:58;;;;;;;;;;;;;;;19.14;59.06;101509.94;7399649;19;2054;-58
2023/03/17 03:21:27;;;;;;;;;;;;;;;19.22;58.60;101503.97;7399169;19;2053;-58
2023/03/17 03:23:55;;;;;;;;;;;;;;;19.30;58.45;101508.72;7399331;19;2079;-58
2023/03/17 03:26:23;;;;;;;;;;;;;;;19.37;58.63;101502.78;7398383;19;2046;-57
2023/03/17 03:28:56;;;;;;;;;;;;;;;19.41;58.24;101500.72;7404339;19;1644;-58
2023/03/17 03:31:24;;;;;;;;;;;;;;;19.46;58.48;101506.56;7403884;19;1951;-57
2023/03/17 03:33:53;;;;;;;;;;;;;;;19.59;57.83;101514.50;7405346;19;1806;-58
2023/03/17 03:36:22;;;;;;;;;;;;;;;19.44;58.39;101506.69;7407491;19;1612;-58
2023/03/17 03:38:50;;;;;;;;;;;;;;;19.44;58.28;101495.13;7405239;19;2122;-58
2023/03/17 03:41:18;;;;;;;;;;;;;;;19.43;58.40;101513.00;7405683;19;1872;-58
2023/03/17 03:43:47;;;;;;;;;;;;;;;19.47;58.19;101521.69;7406172;19;1127;-58
2023/03/17 03:46:18;;;;;;;;;;;;;;;19.43;58.69;101515.69;7406324;19;2170;-57
2023/03/17 03:48:46;;;;;;;;;;;;;;;19.38;58.77;101511.69;7406247;19;2194;-58
2023/03/17 03:51:14;;;;;;;;;;;;;;;19.45;58.36;101521.78;7404726;19;2105;-58
2023/03/17 03:53:42;;;;;;;;;;;;;;;19.43;58.35;101515.69;7405936;19;1642;-58
2023/03/17 03:56:11;;;;;;;;;;;;;;;19.41;58.82;101531.06;7405589;19;2050;-58
2023/03/17 03:58:40;;;;;;;;;;;;;;;19.29;58.79;101526.66;7404635;19;2053;-58
2023/03/17 04:01:09;;;;;;;;;;;;;;;18.73;60.46;101521.09;7404849;19;2000;-58
2023/03/17 04:03:40;;;;;;;;;;;;;;;18.15;62.03;101537.81;7406117;19;1669;-57
2023/03/17 04:06:10;;;;;;;;;;;;;;;17.76;62.73;101539.66;7405233;19;1906;-58
2023/03/17 04:08:38;;;;;;;;;;;;;;;17.98;62.31;101532.81;7402500;19;2047;-57
2023/03/17 04:11:07;;;;;;;;;;;;;;;18.65;60.56;101538.59;7399890;19;1854;-57
2023/03/17 04:13:35;;;;;;;;;;;;;;;18.63;60.38;101532.50;7402033;19;1828;-58
2023/03/17 04:16:04;;;;;;;;;;;;;;;18.85;60.30;101545.16;7403015;19;2179;-58
2023/03/17 04:18:32;;;;;;;;;;;;;;;18.81;60.18;101537.47;7405025;19;2120;-58
2023/03/17 04:21:03;;;;;;;;;;;;;;;18.90;60.36;101547.50;7403740;19;1947;-58
2023/03/17 04:23:32;;;;;;;;;;;;;;;18.92;60.30;101558.09;7404576;19;1853;-58
2023/03/17 04:26:01;;;;;;;;;;;;;;;18.95;60.09;101563.25;7402530;19;2093;-58
2023/03/17 04:28:29;;;;;;;;;;;;;;;18.98;60.32;101563.88;7404982;19;1990;-58
2023/03/17 04:30:57;;;;;;;;;;;;;;;18.94;59.99;101562.38;7403898;19;1800;-57
2023/03/17 04:33:26;;;;;;;;;;;;;;;18.91;60.38;101556.41;7402860;19;1850;-58
2023/03/17 04:35:54;;;;;;;;;;;;;;;18.87;60.18;101563.81;7404465;19;2212;-58
2023/03/17 04:38:25;;;;;;;;;;;;;;;18.85;60.39;101555.88;7402370;19;2062;-58
2023/03/17 04:40:53;;;;;;;;;;;;;;;18.86;60.32;101562.09;7403276;19;2085;-57
2023/03/17 04:43:22;;;;;;;;;;;;;;;18.83;60.30;101567.69;7403686;19;1874;-58
2023/03/17 04:45:50;;;;;;;;;;;;;;;18.84;60.38;101566.72;7402741;19;1978;-57
2023/03/17 04:48:19;;;;;;;;;;;;;;;18.88;60.25;101560.19;7403150;19;1996;-57
2023/03/17 04:50:47;;;;;;;;;;;;;;;18.98;59.79;101565.66;7402200;19;1843;-57
2023/03/17 04:53:15;;;;;;;;;;;;;;;18.90;60.08;101568.06;7401925;19;1851;-57
2023/03/17 04:55:46;;;;;;;;;;;;;;;18.92;59.82;101575.06;7403096;19;1762;-58
2023/03/17 04:58:15;;;;;;;;;;;;;;;18.92;59.82;101569.69;7401184;19;1681;-57
2023/03/17 05:00:43;;;;;;;;;;;;;;;18.93;60.03;101574.06;7403660;19;1682;-58
2023/03/17 05:03:11;;;;;;;;;;;;;;;18.95;59.63;101574.81;7402657;19;1635;-58
2023/03/17 05:05:40;;;;;;;;;;;;;;;18.94;60.68;101573.13;7401378;19;2227;-56
2023/03/17 05:08:08;;;;;;;;;;;;;;;18.57;62.16;101585.66;7399640;19;1988;-56
2023/03/17 05:10:36;;;;;;;;;;;;;;;18.05;62.98;101604.53;7402488;19;1888;-56
2023/03/17 05:13:07;;;;;;;;;;;;;;;17.74;64.15;101600.44;7402089;19;1866;-56
2023/03/17 05:15:35;;;;;;;;;;;;;;;17.69;64.12;101611.47;7402486;19;2228;-56
2023/03/17 05:18:05;;;;;;;;;;;;;;;17.63;64.82;101608.38;7400602;19;1790;-56
2023/03/17 05:20:33;;;;;;;;;;;;;;;17.53;65.23;101599.25;7399865;19;1857;-55
2023/03/17 05:23:01;;;;;;;;;;;;;;;17.46;65.69;101617.53;7402431;19;1671;-55
2023/03/17 05:25:29;;;;;;;;;;;;;;;17.51;66.22;101602.03;7401475;19;1844;-55
2023/03/17 05:27:58;;;;;;;;;;;;;;;17.52;66.75;101610.91;7402604;19;1895;-55
2023/03/17 05:30:29;;;;;;;;;;;;;;;17.52;68.64;101608.25;7403286;19;1658;-56
2023/03/17 05:32:58;;;;;;;;;;;;;;;17.51;70.01;101618.09;7402308;19;1850;-56
2023/03/17 05:35:26;;;;;;;;;;;;;;;17.54;69.99;101628.56;7401742;19;2179;-55
2023/03/17 05:37:55;;;;;;;;;;;;;;;17.56;70.04;101610.59;7401604;19;2028;-56
2023/03/17 05:40:23;;;;;;;;;;;;;;;17.50;69.57;101627.06;7401170;19;1773;-56
2023/03/17 05:42:52;;;;;;;;;;;;;;;17.47;69.24;101622.78;7399592;19;1799;-55
2023/03/17 05:45:20;;;;;;;;;;;;;;;17.38;70.19;101626.06;7400314;19;1852;-56
2023/03/17 05:47:51;;;;;;;;;;;;;;;17.27;70.02;101626.81;7399719;19;1712;-56
2023/03/17 05:50:20;;;;;;;;;;;;;;;17.16;69.17;101626.66;7399058;19;1661;-55
2023/03/17 05:52:50;;;;;;;;;;;;;;;17.15;68.52;101627.63;7398190;19;2997;-55
2023/03/17 05:55:18;;;;;;;;;;;;;;;17.04;68.46;101651.53;7395739;19;1939;-56
2023/03/17 05:57:47;;;;;;;;;;;;;;;16.97;68.36;101645.75;7395259;19;1786;-55
2023/03/17 06:00:17;;;;;;;;;;;;;;;16.95;69.14;101662.81;7395823;19;3188;-55
2023/03/17 06:02:46;;;;;;;;;;;;;;;16.91;68.83;101656.84;7401229;19;1889;-54
2023/03/17 06:05:17;;;;;;;;;;;;;;;16.89;69.11;101654.25;7399905;19;2177;-55
2023/03/17 06:07:45;;;;;;;;;;;;;;;16.84;69.18;101660.84;7399665;19;1816;-55
2023/03/17 06:10:14;;;;;;;;;;;;;;;16.84;68.95;101659.03;7400397;19;1063;-55
2023/03/17 06:12:42;;;;;;;;;;;;;;;16.83;68.88;101667.13;7400124;19;2065;-55
2023/03/17 06:15:11;;;;;;;;;;;;;;;16.80;68.11;101676.19;7400341;19;1783;-55
2023/03/17 06:17:39;;;;;;;;;;;;;;;16.82;68.21;101673.44;7401404;19;2057;-55
2023/03/17 06:20:08;;;;;;;;;;;;;;;16.85;68.52;101678.59;7400108;19;2055;-55
2023/03/17 06:22:39;;;;;;;;;;;;;;;16.96;68.29;101685.91;7401231;19;1920;-55
2023/03/17 06:25:09;;;;;;;;;;;;;;;16.88;68.39;101684.59;7401692;19;1309;-55
2023/03/17 06:27:37;;;;;;;;;;;;;;;16.82;68.77;101695.69;7401027;19;1043;-55
2023/03/17 06:30:07;;;;;;;;;;;;;;;16.80;68.37;101697.56;7399560;19;2139;-54
2023/03/17 06:32:35;;;;;;;;;;;;;;;16.74;67.88;101697.09;7396104;19;2198;-55
2023/03/17 06:35:04;;;;;;;;;;;;;;;16.74;68.30;101705.97;7399935;19;1955;-55
2023/03/17 06:37:33;;;;;;;;;;;;;;;16.72;68.57;101693.66;7400938;19;2279;-55
2023/03/17 06:40:04;;;;;;;;;;;;;;;16.78;68.44;101710.16;7397477;19;1798;-55
2023/03/17 06:42:34;;;;;;;;;;;;;;;16.72;68.15;101709.69;7399447;19;1715;-56
2023/03/17 06:45:02;;;;;;;;;;;;;;;16.74;68.70;101700.63;7396333;19;1957;-55
2023/03/17 06:47:31;;;;;;;;;;;;;;;16.67;68.40;101692.16;7399818;19;1842;-55
2023/03/17 06:49:59;;;;;;;;;;;;;;;16.68;68.19;101698.34;7400031;19;1850;-55
2023/03/17 06:52:28;;;;;;;;;;;;;;;16.66;68.76;101711.78;7400299;19;1852;-55
2023/03/17 06:54:56;;;;;;;;;;;;;;;16.62;68.65;101710.28;7400986;19;2154;-55
2023/03/17 06:57:27;;;;;;;;;;;;;;;16.62;68.42;101718.28;7399581;19;2092;-55
2023/03/17 06:59:56;;;;;;;;;;;;;;;16.62;68.34;101710.28;7398850;19;1730;-55
2023/03/17 07:02:24;;;;;;;;;;;;;;;16.92;67.79;101700.44;7398577;19;1834;-55
2023/03/17 07:04:53;;;;;;;;;;;;;;;17.47;66.45;101686.97;7406164;19;1854;-56
2023/03/17 07:07:23;;;;;;;;;;;;;;;18.08;64.79;101713.19;7404419;19;1852;-55
2023/03/17 07:09:52;;;;;;;;;;;;;;;18.54;63.55;101703.75;7407868;19;1491;-55
2023/03/17 07:12:21;;;;;;;;;;;;;;;18.81;63.02;101707.16;7407314;19;2059;-56
2023/03/17 07:14:52;;;;;;;;;;;;;;;19.02;62.51;101694.00;7407184;19;1805;-55
2023/03/17 07:17:20;;;;;;;;;;;;;;;19.28;61.71;101715.34;7407463;19;2390;-55
2023/03/17 07:19:48;;;;;;;;;;;;;;;18.91;62.96;101712.69;7407506;19;1630;-55
2023/03/17 07:22:17;;;;;;;;;;;;;;;18.93;62.81;101709.91;7408092;19;1018;-56
2023/03/17 07:24:47;;;;;;;;;;;;;;;18.93;63.23;101704.56;7406339;19;1971;-55
2023/03/17 07:27:16;;;;;;;;;;;;;;;18.94;62.93;101711.59;7405180;19;1784;-55
2023/03/17 07:29:44;;;;;;;;;;;;;;;18.90;62.87;101705.63;7407064;19;1827;-55
2023/03/17 07:32:15;;;;;;;;;;;;;;;18.96;63.13;101710.53;7405920;19;1862;-55
2023/03/17 07:34:43;;;;;;;;;;;;;;;19.02;62.51;101714.56;7406971;19;2035;-55
2023/03/17 07:37:12;;;;;;;;;;;;;;;18.95;62.64;101694.56;7406426;19;1798;-56
2023/03/17 07:39:40;;;;;;;;;;;;;;;18.95;62.61;101690.06;7406645;19;1767;-55
2023/03/17 07:42:09;;;;;;;;;;;;;;;19.01;62.57;101704.84;7406252;19;1728;-55
2023/03/17 07:44:40;;;;;;;;;;;;;;;18.96;62.92;101689.09;7406280;19;1829;-55
2023/03/17 07:47:08;;;;;;;;;;;;;;;19.00;62.46;101690.59;7406275;19;2124;-55
2023/03/17 07:49:39;;;;;;;;;;;;;;;18.99;62.51;101688.88;7406088;19;1889;-55
2023/03/17 07:52:08;;;;;;;;;;;;;;;19.03;62.43;101694.84;7405169;19;1796;-55
2023/03/17 07:54:38;;;;;;;;;;;;;;;19.06;62.59;101694.66;7403567;19;2102;-55
2023/03/17 07:57:06;;;;;;;;;;;;;;;19.02;62.76;101693.13;7406698;19;1978;-55
2023/03/17 07:59:35;;;;;;;;;;;;;;;19.07;62.20;101697.19;7405340;19;2005;-55
2023/03/17 08:02:03;;;;;;;;;;;;;;;19.06;62.22;101690.13;7404044;19;1733;-55
2023/03/17 08:04:31;;;;;;;;;;;;;;;19.10;62.19;101685.41;7404669;19;1921;-55
2023/03/17 08:07:05;;;;;;;;;;;;;;;19.06;62.45;101708.06;7404714;19;1805;-55
2023/03/17 08:09:33;;;;;;;;;;;;;;;19.00;62.51;101687.03;7405810;19;959;-55
2023/03/17 08:12:02;;;;;;;;;;;;;;;19.03;62.20;101695.72;7403796;19;2192;-55
2023/03/17 08:14:30;;;;;;;;;;;;;;;19.13;61.90;101695.88;7402016;19;2036;-55
2023/03/17 08:16:58;;;;;;;;;;;;;;;19.15;62.10;101704.66;7404295;19;1534;-55
2023/03/17 08:19:27;;;;;;;;;;;;;;;18.47;64.08;101697.97;7404671;19;2183;-55
2023/03/17 08:21:55;;;;;;;;;;;;;;;18.01;65.28;101695.84;7404610;19;1962;-56
2023/03/17 08:24:26;;;;;;;;;;;;;;;17.74;66.08;101699.41;7404203;19;2122;-55
2023/03/17 08:26:55;;;;;;;;;;;;;;;17.57;66.00;101681.00;7403186;19;1824;-55
2023/03/17 08:29:24;;;;;;;;;;;;;;;17.49;66.20;101682.38;7405288;19;1597;-55
2023/03/17 08:31:52;;;;;;;;;;;;;;;17.40;66.32;101685.66;7403316;19;2119;-55
2023/03/17 08:34:20;;;;;;;;;;;;;;;17.35;66.59;101693.13;7402098;19;1853;-55
2023/03/17 08:36:49;;;;;;;;;;;;;;;17.31;66.47;101696.97;7404871;19;1014;-55
2023/03/17 08:39:18;;;;;;;;;;;;;;;17.25;66.51;101692.03;7404313;19;2115;-55
2023/03/17 08:41:49;;;;;;;;;;;;;;;17.21;66.79;101685.16;7403204;19;2180;-55
2023/03/17 08:44:18;;;;;;;;;;;;;;;17.19;66.68;101700.44;7402863;19;2137;-55
2023/03/17 08:46:48;;;;;;;;;;;;;;;17.17;66.62;101695.22;7403837;19;1900;-55
2023/03/17 08:49:17;;;;;;;;;;;;;;;17.13;66.73;101688.34;7403034;19;1752;-55
2023/03/17 08:51:46;;;;;;;;;;;;;;;17.12;66.68;101680.44;7403779;19;1898;-55
2023/03/17 08:54:14;;;;;;;;;;;;;;;17.06;66.93;101687.88;7401889;19;2192;-55
2023/03/17 08:56:43;;;;;;;;;;;;;;;17.02;66.71;101678.34;7403589;19;2152;-55
2023/03/17 08:59:14;;;;;;;;;;;;;;;17.01;66.60;101687.34;7402102;19;2111;-55
2023/03/17 09:01:44;;;;;;;;;;;;;;;16.96;66.90;101684.09;7402610;19;1842;-55
2023/03/17 09:04:12;;;;;;;;;;;;;;;16.96;67.12;101692.13;7403001;19;963;-55
2023/03/17 09:06:40;;;;;;;;;;;;;;;16.90;66.73;101689.84;7401894;19;1872;-55
2023/03/17 09:09:09;;;;;;;;;;;;;;;16.90;66.77;101703.19;7403813;19;968;-55
2023/03/17 09:11:38;;;;;;;;;;;;;;;16.84;66.94;101692.91;7401507;19;2205;-55
2023/03/17 09:14:06;;;;;;;;;;;;;;;16.79;67.28;101694.97;7399897;19;1977;-55
2023/03/17 09:16:37;;;;;;;;;;;;;;;16.78;67.50;101710.16;7402450;19;1888;-55
2023/03/17 09:19:05;;;;;;;;;;;;;;;16.75;67.27;101704.13;7402603;19;1793;-55
2023/03/17 09:21:34;;;;;;;;;;;;;;;16.74;67.00;101697.94;7402665;19;1845;-55
2023/03/17 09:24:02;;;;;;;;;;;;;;;16.74;67.25;101689.09;7402236;19;1823;-55
2023/03/17 09:26:30;;;;;;;;;;;;;;;16.70;67.06;101694.59;7400484;19;2058;-55
2023/03/17 09:28:59;;;;;;;;;;;;;;;16.69;66.99;101702.72;7401658;19;1785;-55
2023/03/17 09:31:27;;;;;;;;;;;;;;;16.68;66.92;101691.19;7401649;19;2080;-55
2023/03/17 09:33:58;;;;;;;;;;;;;;;16.66;67.23;101702.94;7401752;19;1834;-55
2023/03/17 09:36:27;;;;;;;;;;;;;;;16.63;67.09;101695.97;7402398;19;2088;-55
2023/03/17 09:38:55;;;;;;;;;;;;;;;16.62;67.55;101696.91;7402488;19;1465;-55
2023/03/17 09:41:38;;;;;;;;;;;;;;;16.58;67.18;101692.72;7401283;19;2120;-55
2023/03/17 09:44:13;;;;;;;;;;;;;;;16.58;67.25;101699.88;7400930;19;2217;-56
2023/03/17 09:46:48;;;;;;;;;;;;;;;16.56;67.56;101705.31;7401712;19;1819;-55
2023/03/17 09:49:21;;;;;;;;;;;;;;;16.57;67.73;101693.66;7401882;19;2030;-55
2023/03/17 09:51:51;;;;;;;;;;;;;;;16.84;66.59;101695.59;7401835;19;2092;-55
2023/03/17 09:54:25;;;;;;;;;;;;;;;17.48;64.92;101683.31;7400541;19;2037;-55
2023/03/17 09:57:00;;;;;;;;;;;;;;;18.21;62.70;101687.28;7402068;19;2593;-55
2023/03/17 09:59:33;;;;;;;;;;;;;;;18.55;62.15;101684.88;7401060;19;1837;-55
2023/03/17 10:02:01;;;;;;;;;;;;;;;18.78;61.55;101668.97;7399704;19;2009;-55
2023/03/17 10:04:32;;;;;;;;;;;;;;;18.97;61.11;101680.06;7399798;19;2364;-55
2023/03/17 10:07:03;;;;;;;;;;;;;;;19.10;60.70;101669.31;7399274;19;1910;-55
2023/03/17 10:09:35;;;;;;;;;;;;;;;18.78;61.54;101693.06;7401827;19;1447;-55
2023/03/17 10:12:07;;;;;;;;;;;;;;;18.70;61.73;101672.19;7399767;19;1803;-55
2023/03/17 10:14:39;;;;;;;;;;;;;;;18.79;61.38;101668.88;7398260;19;2057;-55
2023/03/17 10:17:15;;;;;;;;;;;;;;;18.73;61.54;101681.84;7400098;19;1467;-55
2023/03/17 10:19:48;;;;;;;;;;;;;;;18.84;61.17;101657.81;7400231;19;1762;-55
2023/03/17 10:22:21;;;;;;;;;;;;;;;18.87;61.25;101657.59;7400952;19;1422;-56
2023/03/17 10:24:51;;;;;;;;;;;;;;;18.90;60.94;101678.84;7400225;19;2130;-55
2023/03/17 10:27:20;;;;;;;;;;;;;;;18.82;60.92;101665.13;7397037;19;2453;-55
2023/03/17 10:29:48;;;;;;;;;;;;;;;18.79;61.34;101665.31;7399061;19;1836;-55
2023/03/17 10:32:17;;;;;;;;;;;;;;;18.76;61.62;101662.84;7399437;19;1822;-55
2023/03/17 10:34:49;;;;;;;;;;;;;;;18.80;61.16;101684.00;7398839;19;1858;-55
2023/03/17 10:37:20;;;;;;;;;;;;;;;18.78;61.38;101652.88;7401678;19;1807;-55
2023/03/17 10:39:50;;;;;;;;;;;;;;;18.69;61.33;101662.47;7407113;19;1652;-55
2023/03/17 10:42:23;;;;;;;;;;;;;;;18.15;62.63;101658.28;7404186;19;2153;-55
2023/03/17 10:44:53;;;;;;;;;;;;;;;17.77;63.81;101666.28;7406002;19;1712;-55
2023/03/17 10:47:27;;;;;;;;;;;;;;;17.57;64.55;101665.81;7407847;19;1688;-54
2023/03/17 10:49:59;;;;;;;;;;;;;;;17.40;64.98;101658.91;7407859;19;1728;-55
2023/03/17 10:52:29;;;;;;;;;;;;;;;17.37;64.95;101658.25;7408729;19;1589;-55
2023/03/17 10:54:57;;;;;;;;;;;;;;;17.29;65.27;101667.66;7406691;19;1961;-55
2023/03/17 10:57:26;;;;;;;;;;;;;;;17.25;65.13;101652.78;7407480;19;2113;-55
2023/03/17 10:59:56;;;;;;;;;;;;;;;17.23;65.51;101653.81;7406280;19;2150;-55
2023/03/17 11:02:29;;;;;;;;;;;;;;;17.21;65.55;101653.06;7407537;19;1630;-55
2023/03/17 11:05:05;;;;;;;;;;;;;;;17.23;65.51;101659.19;7406860;19;1812;-56
2023/03/17 11:07:37;;;;;;;;;;;;;;;17.20;65.66;101640.69;6370606;19;10000758;-57
2023/03/17 11:10:07;;;;;;;;;;;;;;;17.12;65.70;101653.72;7396809;19;1837;-56
2023/03/17 11:12:36;;;;;;;;;;;;;;;17.05;65.92;101643.44;7400547;19;1862;-56
2023/03/17 11:15:08;;;;;;;;;;;;;;;17.01;66.08;101652.59;7398010;19;2111;-56
2023/03/17 11:17:42;;;;;;;;;;;;;;;16.98;65.97;101650.13;7400506;19;1699;-56
2023/03/17 11:20:25;;;;;;;;;;;;;;;16.95;66.09;101646.78;7400669;19;2069;-56
2023/03/17 11:23:02;;;;;;;;;;;;;;;16.92;66.32;101658.53;7399397;19;1978;-56
2023/03/17 11:25:31;;;;;;;;;;;;;;;16.87;66.23;101655.28;7402169;19;1871;-56
2023/03/17 11:28:04;;;;;;;;;;;;;;;16.85;66.62;101646.53;7401056;19;1800;-56
2023/03/17 11:30:34;;;;;;;;;;;;;;;16.83;66.28;101648.44;7400188;19;1996;-56
2023/03/17 11:33:07;;;;;;;;;;;;;;;16.81;66.79;101650.31;7402443;19;1817;-55
2023/03/17 11:35:42;;;;;;;;;;;;;;;16.76;66.63;101642.63;7398998;19;2250;-55
2023/03/17 11:38:23;;;;;;;;;;;;;;;16.77;66.94;101638.13;7400961;19;2112;-55
2023/03/17 11:41:12;;;;;;;;;;;;;;;16.70;66.96;101633.19;7400137;19;1832;-55
2023/03/17 11:43:45;;;;;;;;;;;;;;;16.72;66.74;101637.59;7399348;19;2066;-55
2023/03/17 11:46:17;;;;;;;;;;;;;;;16.72;66.80;101570.81;7399820;19;2046;-56
2023/03/17 11:48:50;;;;;;;;;;;;;;;16.70;67.37;101633.19;7398259;19;2055;-55
2023/03/17 11:51:26;;;;;;;;;;;;;;;16.66;67.01;101639.69;7399550;19;1798;-55
2023/03/17 11:54:14;;;;;;;;;;;;;;;16.65;66.96;101629.97;7397948;19;1849;-55
2023/03/17 11:56:44;;;;;;;;;;;;;;;16.61;67.22;101639.13;7400471;19;2040;-55
2023/03/17 11:59:17;;;;;;;;;;;;;;;16.61;67.11;101638.25;7399739;19;1928;-55
2023/03/17 12:01:53;;;;;;;;;;;;;;;16.56;67.13;101640.38;7400812;19;1926;-55
2023/03/17 12:04:28;;;;;;;;;;;;;;;16.55;67.14;101639.50;7400512;19;1927;-55
2023/03/17 12:07:01;;;;;;;;;;;;;;;16.53;67.23;101636.06;7397932;19;3192;-55
2023/03/17 12:09:34;;;;;;;;;;;;;;;16.53;67.33;101636.06;7399494;19;1683;-56
2023/03/17 12:12:04;;;;;;;;;;;;;;;16.53;67.25;101638.75;7400256;19;1637;-56
2023/03/17 12:14:35;;;;;;;;;;;;;;;16.49;67.17;101626.53;7398526;19;2187;-56
2023/03/17 12:17:06;;;;;;;;;;;;;;;16.49;66.97;101631.88;7399322;19;2183;-55
2023/03/17 12:19:39;;;;;;;;;;;;;;;16.47;67.23;101636.47;7398240;19;2210;-55
2023/03/17 12:22:10;;;;;;;;;;;;;;;16.49;67.48;101640.78;7398896;19;2223;-55
2023/03/17 12:24:44;;;;;;;;;;;;;;;16.44;67.13;101613.50;7399116;19;2128;-55
2023/03/17 12:27:15;;;;;;;;;;;;;;;16.42;67.36;101633.25;7398828;19;2050;-55
2023/03/17 12:29:48;;;;;;;;;;;;;;;16.44;67.30;101634.84;7398320;19;1724;-55
2023/03/17 12:32:20;;;;;;;;;;;;;;;16.42;67.36;101627.91;7398325;19;2190;-55
2023/03/17 12:34:52;;;;;;;;;;;;;;;16.40;67.52;101630.66;7397476;19;1845;-55
2023/03/17 12:37:22;;;;;;;;;;;;;;;16.40;67.15;101635.16;7397886;19;1771;-55
2023/03/17 12:39:57;;;;;;;;;;;;;;;16.40;67.81;101636.00;7399032;19;1416;-55
2023/03/17 12:42:38;;;;;;;;;;;;;;;16.39;67.35;101649.44;7398193;19;2013;-55
2023/03/17 12:45:18;;;;;;;;;;;;;;;16.38;67.53;101645.09;7397772;19;2502;-55
2023/03/17 12:47:56;;;;;;;;;;;;;;;16.38;67.03;101637.06;7398078;19;2117;-55
2023/03/17 12:50:40;;;;;;;;;;;;;;;16.37;66.94;101620.16;7397862;19;1960;-55
2023/03/17 12:53:25;;;;;;;;;;;;;;;16.36;67.23;101638.97;7395484;19;2049;-55
2023/03/17 12:55:59;;;;;;;;;;;;;;;16.37;67.57;101630.00;7396450;19;1858;-55
2023/03/17 12:58:32;;;;;;;;;;;;;;;16.34;67.36;101630.22;7397155;19;2107;-55
2023/03/17 13:01:07;;;;;;;;;;;;;;;16.33;67.41;101617.81;7395650;19;2261;-55
2023/03/17 13:03:37;;;;;;;;;;;;;;;16.35;67.26;101643.44;7398672;19;1770;-55